Terminal Aerodrome Forecast
Issued by NWS Norman, OK

Home | Current Version | Previous Version | Text Only | Print | Product List | Glossary On
Versions: 1 2 3 4 5 6 7 8 9 10 11 12 13 14 15 16
000
FTUS44 KOUN 210520
TAFSPS
TAF
KSPS 210520Z 2106/2206 22011KT P6SM SCT250
     FM211300 22010KT P6SM OVC100
     FM211700 21014G22KT P6SM BKN100=

USA.gov is the U.S. government's official web portal to all federal, state and local government web resources and services.